createdAt,value
2023-05-19T00:02:09.426Z,98997.41
2023-05-19T00:04:37.138Z,98972.09
2023-05-19T00:07:05.638Z,99008.03
2023-05-19T00:09:32.749Z,98984.56
2023-05-19T00:11:59.859Z,98954.69
2023-05-19T00:14:26.912Z,98993.78
2023-05-19T00:16:56.303Z,98995.94
2023-05-19T00:19:24.538Z,98985.06
2023-05-19T00:21:51.505Z,98942.19
2023-05-19T00:24:18.223Z,98960.13
2023-05-19T00:26:44.902Z,98965.59
2023-05-19T00:29:18.541Z,98941.91
2023-05-19T00:31:48.273Z,98955.72
2023-05-19T00:34:15.821Z,98949.50
2023-05-19T00:36:42.767Z,98989.56
2023-05-19T00:39:09.797Z,98946.84
2023-05-19T00:41:36.800Z,98960.88
2023-05-19T00:44:03.872Z,98939.41
2023-05-19T00:46:31.079Z,98937.91
2023-05-19T00:48:58.232Z,98945.63
2023-05-19T00:51:34.178Z,98950.03
2023-05-19T00:54:01.467Z,98979.22
2023-05-19T00:56:28.980Z,98965.25
2023-05-19T00:59:00.817Z,98931.41
2023-05-19T01:01:28.009Z,98952.81
2023-05-19T01:03:59.100Z,98953.47
2023-05-19T01:06:29.690Z,98971.22
2023-05-19T01:08:57.480Z,98970.38
2023-05-19T01:11:24.176Z,98946.34
2023-05-19T01:13:50.918Z,98960.13
2023-05-19T01:16:20.497Z,98968.06
2023-05-19T01:19:10.907Z,98962.03
2023-05-19T01:21:44.511Z,98965.38
2023-05-19T01:24:18.284Z,98959.78
2023-05-19T01:27:17.677Z,98941.47
2023-05-19T01:30:17.317Z,98954.56
2023-05-19T01:32:45.536Z,98932.00
2023-05-19T01:35:15.580Z,98937.00
2023-05-19T01:37:42.645Z,98949.50
2023-05-19T01:40:10.116Z,98961.28
2023-05-19T01:42:39.853Z,98954.06
2023-05-19T01:45:10.621Z,98928.22
2023-05-19T01:47:42.113Z,98944.13
2023-05-19T01:50:10.031Z,98925.38
2023-05-19T01:52:36.668Z,98946.81
2023-05-19T01:55:03.650Z,98934.28
2023-05-19T01:57:36.214Z,98954.50
2023-05-19T02:00:21.546Z,98961.94
2023-05-19T02:03:19.251Z,98962.78
2023-05-19T02:05:55.585Z,98963.13
2023-05-19T02:08:44.359Z,98945.63
2023-05-19T02:11:27.407Z,98961.47
2023-05-19T02:13:56.467Z,98965.41
2023-05-19T02:16:28.730Z,98972.31
2023-05-19T02:18:56.496Z,98963.97
2023-05-19T02:21:23.075Z,98973.34
2023-05-19T02:23:50.761Z,98972.72
2023-05-19T02:26:19.958Z,98968.09
2023-05-19T02:28:56.320Z,98928.41
2023-05-19T02:31:24.853Z,98976.81
2023-05-19T02:33:51.693Z,98954.69
2023-05-19T02:36:19.123Z,98942.59
2023-05-19T02:38:45.839Z,98974.22
2023-05-19T02:41:12.488Z,98971.81
2023-05-19T02:43:39.410Z,98959.50
2023-05-19T02:46:06.221Z,98962.25
2023-05-19T02:48:33.133Z,98962.63
2023-05-19T02:50:59.806Z,98934.31
2023-05-19T02:53:27.046Z,98962.06
2023-05-19T02:55:53.776Z,98970.78
2023-05-19T02:58:20.751Z,98968.41
2023-05-19T03:00:47.902Z,98951.09
2023-05-19T03:03:15.138Z,98930.69
2023-05-19T03:05:43.150Z,98969.63
2023-05-19T03:08:09.874Z,98947.28
2023-05-19T03:10:36.724Z,98955.25
2023-05-19T03:13:03.433Z,98945.91
2023-05-19T03:15:30.600Z,98935.41
2023-05-19T03:17:57.532Z,98963.53
2023-05-19T03:20:24.596Z,98949.31
2023-05-19T03:22:51.383Z,98964.25
2023-05-19T03:25:18.888Z,98949.63
2023-05-19T03:27:45.707Z,98946.91
2023-05-19T03:30:12.977Z,98948.56
2023-05-19T03:32:52.578Z,98957.91
2023-05-19T03:35:19.511Z,98961.44
2023-05-19T03:37:46.415Z,98928.28
2023-05-19T03:40:13.663Z,98931.06
2023-05-19T03:42:42.886Z,98953.09
2023-05-19T03:45:09.897Z,98962.22
2023-05-19T03:47:36.733Z,98967.41
2023-05-19T03:50:23.446Z,98963.03
2023-05-19T03:52:53.618Z,98950.53
2023-05-19T03:55:29.922Z,98964.06
2023-05-19T03:57:57.158Z,98967.75
2023-05-19T04:00:24.005Z,98958.84
2023-05-19T04:02:51.270Z,98961.09
2023-05-19T04:05:17.960Z,98954.25
2023-05-19T04:07:46.646Z,98963.34
2023-05-19T04:10:13.865Z,98964.81
2023-05-19T04:12:40.680Z,98965.56
2023-05-19T04:15:08.241Z,98955.91
2023-05-19T04:17:35.181Z,98958.38
2023-05-19T04:20:01.869Z,98970.22
2023-05-19T04:22:28.584Z,98984.59
2023-05-19T04:24:56.219Z,98968.28
2023-05-19T04:27:24.226Z,98969.97
2023-05-19T04:29:51.163Z,98975.97
2023-05-19T04:32:18.056Z,98983.03
2023-05-19T04:34:46.008Z,98980.63
2023-05-19T04:37:17.909Z,98973.47
2023-05-19T04:39:45.478Z,98964.97
2023-05-19T04:42:13.361Z,98968.84
2023-05-19T04:44:41.989Z,98973.31
2023-05-19T04:47:09.192Z,98974.97
2023-05-19T04:49:39.042Z,98979.97
2023-05-19T04:52:11.165Z,98986.69
2023-05-19T04:54:39.650Z,98993.16
2023-05-19T04:57:06.951Z,98986.84
2023-05-19T04:59:37.368Z,98984.81
2023-05-19T05:02:06.854Z,98982.75
2023-05-19T05:04:36.260Z,98992.50
2023-05-19T05:07:03.107Z,98964.97
2023-05-19T05:09:29.938Z,98969.91
2023-05-19T05:12:01.538Z,98984.63
2023-05-19T05:14:28.828Z,98982.13
2023-05-19T05:16:55.999Z,98987.66
2023-05-19T05:19:26.421Z,98989.16
2023-05-19T05:21:54.332Z,99001.66
2023-05-19T05:24:21.476Z,98989.38
2023-05-19T05:26:53.560Z,99000.19
2023-05-19T05:29:21.092Z,98978.97
2023-05-19T05:31:47.790Z,98965.78
2023-05-19T05:34:14.595Z,99003.53
2023-05-19T05:36:43.112Z,98973.03
2023-05-19T05:39:10.199Z,98999.25
2023-05-19T05:41:38.126Z,98982.19
2023-05-19T05:44:10.915Z,98995.72
2023-05-19T05:46:40.326Z,98989.31
2023-05-19T05:49:07.534Z,98989.53
2023-05-19T05:51:34.664Z,98985.16
2023-05-19T05:54:03.178Z,98983.22
2023-05-19T05:56:37.375Z,98985.63
2023-05-19T05:59:07.187Z,98978.28
2023-05-19T06:01:36.586Z,98979.31
2023-05-19T06:04:05.242Z,98980.53
2023-05-19T06:06:32.707Z,98999.72
2023-05-19T06:09:01.613Z,98968.00
2023-05-19T06:11:29.094Z,98984.44
2023-05-19T06:13:58.040Z,98980.91
2023-05-19T06:16:56.953Z,99004.78
2023-05-19T06:19:25.437Z,98984.13
2023-05-19T06:21:52.672Z,99015.75
2023-05-19T06:24:19.411Z,98989.41
2023-05-19T06:26:47.376Z,98993.38
2023-05-19T06:29:14.928Z,99008.31
2023-05-19T06:31:41.956Z,98994.75
2023-05-19T06:34:12.538Z,98982.25
2023-05-19T06:36:41.351Z,98990.97
2023-05-19T06:39:08.732Z,98964.66
2023-05-19T06:41:35.825Z,99000.25
2023-05-19T06:44:04.053Z,99002.44
2023-05-19T06:46:33.181Z,99006.53
2023-05-19T06:49:00.500Z,98997.09
2023-05-19T06:51:31.449Z,99014.13
2023-05-19T06:54:00.905Z,99013.22
2023-05-19T06:56:29.062Z,99013.53
2023-05-19T06:58:56.036Z,99000.88
2023-05-19T07:01:27.996Z,99000.88
2023-05-19T07:03:56.174Z,99001.09
2023-05-19T07:06:22.902Z,99013.41
2023-05-19T07:08:50.787Z,99027.75
2023-05-19T07:11:18.742Z,99012.19
2023-05-19T07:13:45.341Z,98971.41
2023-05-19T07:16:14.319Z,99006.50
2023-05-19T07:18:41.117Z,99014.31
2023-05-19T07:21:08.001Z,98995.88
2023-05-19T07:23:34.821Z,99031.44
2023-05-19T07:26:01.565Z,99026.19
2023-05-19T07:28:28.203Z,98977.44
2023-05-19T07:30:54.809Z,99028.53
2023-05-19T07:33:21.464Z,99018.59
2023-05-19T07:35:48.494Z,99025.66
2023-05-19T07:38:15.148Z,99018.22
2023-05-19T07:40:41.862Z,98993.09
2023-05-19T07:43:08.552Z,99004.16
2023-05-19T07:45:35.333Z,99024.38
2023-05-19T07:48:02.050Z,99018.25
2023-05-19T07:50:28.793Z,99010.94
2023-05-19T07:52:56.524Z,99035.88
2023-05-19T07:55:23.257Z,99040.34
2023-05-19T07:57:50.888Z,99014.13
2023-05-19T08:00:17.877Z,99030.22
2023-05-19T08:02:45.190Z,99034.19
2023-05-19T08:05:11.981Z,99012.13
2023-05-19T08:07:38.726Z,99040.63
2023-05-19T08:10:05.730Z,99023.28
2023-05-19T08:12:32.398Z,99038.31
2023-05-19T08:15:01.185Z,99036.34
2023-05-19T08:17:28.382Z,99037.19
2023-05-19T08:19:55.137Z,98989.47
2023-05-19T08:22:21.775Z,98990.00
2023-05-19T08:24:49.769Z,99024.97
2023-05-19T08:27:16.658Z,99020.25
2023-05-19T08:29:43.606Z,99041.94
2023-05-19T08:32:12.971Z,99030.25
2023-05-19T08:34:39.988Z,99051.13
2023-05-19T08:37:07.547Z,99041.56
2023-05-19T08:39:34.918Z,99034.50
2023-05-19T08:42:02.433Z,99009.47
2023-05-19T08:44:30.786Z,99014.47
2023-05-19T08:47:02.915Z,98999.19
2023-05-19T08:49:33.557Z,99032.47
2023-05-19T08:52:16.521Z,99019.78
2023-05-19T08:54:53.291Z,99038.25
2023-05-19T08:57:21.800Z,99048.06
2023-05-19T08:59:51.152Z,99045.28
2023-05-19T09:02:18.721Z,99042.69
2023-05-19T09:04:48.100Z,99044.63
2023-05-19T09:07:15.874Z,99017.75
2023-05-19T09:09:43.813Z,99061.31
2023-05-19T09:12:11.639Z,99031.34
2023-05-19T09:14:38.683Z,99015.69
2023-05-19T09:17:06.000Z,99052.31
2023-05-19T09:19:33.112Z,99023.47
2023-05-19T09:22:01.411Z,99062.69
2023-05-19T09:24:28.693Z,99028.22
2023-05-19T09:27:00.220Z,99066.75
2023-05-19T09:29:27.259Z,99036.25
2023-05-19T09:32:00.404Z,99066.03
2023-05-19T09:34:27.798Z,99066.03
2023-05-19T09:36:54.520Z,99039.94
2023-05-19T09:39:23.060Z,99060.34
2023-05-19T09:41:54.725Z,99066.03
2023-05-19T09:44:33.064Z,99054.25
2023-05-19T09:47:00.098Z,99073.81
2023-05-19T09:49:32.975Z,99064.38
2023-05-19T09:52:03.251Z,99063.34
2023-05-19T09:54:32.163Z,99072.06
2023-05-19T09:57:00.480Z,99036.59
2023-05-19T09:59:32.071Z,99052.13
2023-05-19T10:02:01.373Z,99075.84
2023-05-19T10:04:30.025Z,99063.41
2023-05-19T10:07:01.592Z,99077.91
2023-05-19T10:09:29.954Z,99046.00
2023-05-19T10:11:58.184Z,99042.75
2023-05-19T10:14:27.227Z,99048.97
2023-05-19T10:16:59.059Z,99041.38
2023-05-19T10:19:29.408Z,99035.66
2023-05-19T10:21:57.000Z,99069.09
2023-05-19T10:24:23.789Z,99055.38
2023-05-19T10:27:03.624Z,99072.56
2023-05-19T10:29:34.732Z,99042.84
2023-05-19T10:32:08.283Z,99070.22
2023-05-19T10:34:59.535Z,99081.16
2023-05-19T10:37:29.219Z,99081.56
2023-05-19T10:39:57.794Z,99062.53
2023-05-19T10:42:38.130Z,99039.78
2023-05-19T10:45:19.934Z,99063.59
2023-05-19T10:47:46.905Z,99034.19
2023-05-19T10:50:13.831Z,99075.94
2023-05-19T10:52:41.064Z,99052.56
2023-05-19T10:55:10.258Z,99071.03
2023-05-19T10:57:37.183Z,99063.03
2023-05-19T11:00:25.599Z,99059.19
2023-05-19T11:02:56.308Z,99039.50
2023-05-19T11:05:29.446Z,99059.25
2023-05-19T11:08:02.395Z,99033.66
2023-05-19T11:10:29.304Z,99031.25
2023-05-19T11:12:58.280Z,99054.72
2023-05-19T11:15:28.965Z,99060.47
2023-05-19T11:17:56.100Z,99057.50
2023-05-19T11:20:27.303Z,99061.91
2023-05-19T11:23:19.095Z,99063.81
2023-05-19T11:25:51.587Z,99062.69
2023-05-19T11:28:20.144Z,99023.19
2023-05-19T11:30:52.317Z,99054.16
2023-05-19T11:33:20.979Z,99050.44
2023-05-19T11:35:50.355Z,99056.06
2023-05-19T11:38:18.872Z,99016.75
2023-05-19T11:40:47.800Z,99054.59
2023-05-19T11:43:14.525Z,99038.59
2023-05-19T11:45:41.420Z,99035.50
2023-05-19T11:48:12.582Z,99020.88
2023-05-19T11:50:43.985Z,99047.69
2023-05-19T11:53:15.053Z,99042.88
2023-05-19T11:55:44.364Z,99032.22
2023-05-19T11:58:11.326Z,99042.75
2023-05-19T12:00:40.500Z,99019.53
2023-05-19T12:03:09.346Z,99045.97
2023-05-19T12:05:48.939Z,99046.72
2023-05-19T12:08:19.490Z,99051.47
2023-05-19T12:10:52.324Z,99010.78
2023-05-19T12:13:19.475Z,99005.56
2023-05-19T12:15:46.326Z,99023.41
2023-05-19T12:18:13.169Z,99029.47
2023-05-19T12:20:40.040Z,99022.97
2023-05-19T12:23:07.532Z,99007.44
2023-05-19T12:25:34.614Z,99015.81
2023-05-19T12:28:05.178Z,99033.22
2023-05-19T12:30:33.160Z,99027.00
2023-05-19T12:33:02.022Z,98970.34
2023-05-19T12:35:31.836Z,99025.94
2023-05-19T12:38:03.595Z,99012.97
2023-05-19T12:40:30.448Z,98985.25
2023-05-19T12:42:59.100Z,98972.44
2023-05-19T12:45:29.696Z,98972.16
2023-05-19T12:47:56.728Z,98986.69
2023-05-19T12:50:30.129Z,99002.00
2023-05-19T12:52:58.421Z,99003.91
2023-05-19T12:55:25.376Z,98986.69
2023-05-19T12:57:55.049Z,98972.66
2023-05-19T13:00:25.895Z,98993.88
2023-05-19T13:03:01.540Z,99005.03
2023-05-19T13:05:37.222Z,99003.72
2023-05-19T13:08:09.234Z,98995.25
2023-05-19T13:10:37.749Z,99000.00
2023-05-19T13:13:06.819Z,98973.53
2023-05-19T13:15:35.410Z,98982.28
2023-05-19T13:18:06.432Z,98978.38
2023-05-19T13:20:34.398Z,99005.50
2023-05-19T13:23:03.244Z,98995.47
2023-05-19T13:25:29.998Z,98983.59
2023-05-19T13:27:56.854Z,98981.50
2023-05-19T13:30:24.363Z,98978.53
2023-05-19T13:32:52.517Z,98970.38
2023-05-19T13:35:20.002Z,98969.22
2023-05-19T13:37:46.772Z,98990.47
2023-05-19T13:40:13.729Z,99002.75
2023-05-19T13:42:43.596Z,98964.78
2023-05-19T13:45:10.802Z,98965.69
2023-05-19T13:47:38.759Z,98995.53
2023-05-19T13:50:06.359Z,98988.91
2023-05-19T13:52:33.484Z,98963.91
2023-05-19T13:55:00.527Z,98986.19
2023-05-19T13:57:27.206Z,98969.28
2023-05-19T14:00:02.623Z,98993.81
2023-05-19T14:02:40.022Z,98983.19
2023-05-19T14:05:07.536Z,98986.44
2023-05-19T14:07:37.070Z,98954.00
2023-05-19T14:10:06.375Z,98979.16
2023-05-19T14:12:44.921Z,98960.34
2023-05-19T14:15:19.675Z,98981.03
2023-05-19T14:17:46.488Z,98975.22
2023-05-19T14:20:13.285Z,98932.28
2023-05-19T14:22:40.221Z,98970.16
2023-05-19T14:25:07.548Z,98970.53
2023-05-19T14:27:34.172Z,98977.16
2023-05-19T14:30:00.960Z,98952.16
2023-05-19T14:32:30.026Z,98942.59
2023-05-19T14:34:57.177Z,98954.88
2023-05-19T14:37:24.234Z,98981.28
2023-05-19T14:39:50.934Z,98958.94
2023-05-19T14:42:17.531Z,98950.84
2023-05-19T14:44:44.555Z,98976.25
2023-05-19T14:47:12.450Z,98971.06
2023-05-19T14:49:39.304Z,98928.59
2023-05-19T14:52:06.213Z,98924.34
2023-05-19T14:54:34.003Z,98932.09
2023-05-19T14:57:01.630Z,98948.31
2023-05-19T14:59:29.598Z,98955.88
2023-05-19T15:01:56.288Z,98930.66
2023-05-19T15:04:23.106Z,98949.53
2023-05-19T15:06:58.172Z,98930.69
2023-05-19T15:09:32.355Z,98921.28
2023-05-19T15:12:01.204Z,98938.59
2023-05-19T15:14:30.179Z,98950.84
2023-05-19T15:16:57.560Z,98931.41
2023-05-19T15:19:24.442Z,98941.47
2023-05-19T15:21:51.270Z,98955.56
2023-05-19T15:24:18.049Z,98933.59
2023-05-19T15:26:45.437Z,98951.63
2023-05-19T15:29:12.079Z,98923.34
2023-05-19T15:31:38.745Z,98914.53
2023-05-19T15:34:05.621Z,98920.34
2023-05-19T15:36:32.229Z,98916.31
2023-05-19T15:38:58.993Z,98948.28
2023-05-19T15:41:25.907Z,98955.25
2023-05-19T15:43:53.649Z,98926.97
2023-05-19T15:46:20.325Z,98951.19
2023-05-19T15:48:47.019Z,98942.44
2023-05-19T15:51:13.927Z,98926.25
2023-05-19T15:53:40.672Z,98910.88
2023-05-19T15:56:07.467Z,98939.88
2023-05-19T15:58:34.316Z,98918.03
2023-05-19T16:01:01.189Z,98935.78
2023-05-19T16:03:28.019Z,98926.56
2023-05-19T16:05:54.809Z,98895.59
2023-05-19T16:08:21.726Z,98919.19
2023-05-19T16:10:48.520Z,98935.03
2023-05-19T16:13:15.278Z,98886.47
2023-05-19T16:15:42.016Z,98914.97
2023-05-19T16:18:08.704Z,98932.06
2023-05-19T16:20:35.535Z,98924.91
2023-05-19T16:23:03.242Z,98916.09
2023-05-19T16:25:30.149Z,98893.91
2023-05-19T16:27:57.287Z,98927.38
2023-05-19T16:30:26.227Z,98895.47
2023-05-19T16:32:56.127Z,98938.66
2023-05-19T16:35:23.616Z,98930.03
2023-05-19T16:37:50.356Z,98915.16
2023-05-19T16:40:17.417Z,98920.81
2023-05-19T16:42:44.059Z,98922.41
2023-05-19T16:45:11.004Z,98922.00
2023-05-19T16:47:37.739Z,98908.94
2023-05-19T16:50:04.761Z,98911.00
2023-05-19T16:52:31.436Z,98913.03
2023-05-19T16:54:58.167Z,98887.59
2023-05-19T16:57:24.860Z,98918.25
2023-05-19T16:59:51.600Z,98910.31
2023-05-19T17:02:18.542Z,98919.47
2023-05-19T17:04:45.367Z,98912.34
2023-05-19T17:07:15.578Z,98927.50
2023-05-19T17:09:43.158Z,98896.91
2023-05-19T17:12:10.873Z,98926.00
2023-05-19T17:14:37.636Z,98932.97
2023-05-19T17:17:04.506Z,98918.88
2023-05-19T17:19:31.439Z,98903.34
2023-05-19T17:21:58.126Z,98896.19
2023-05-19T17:24:24.862Z,98897.97
2023-05-19T17:26:51.546Z,98892.78
2023-05-19T17:29:18.350Z,98901.75
2023-05-19T17:31:45.243Z,98930.28
2023-05-19T17:34:12.146Z,98924.00
2023-05-19T17:36:38.755Z,98917.50
2023-05-19T17:39:05.536Z,98915.31
2023-05-19T17:41:32.237Z,98902.34
2023-05-19T17:43:58.889Z,98922.63
2023-05-19T17:46:25.675Z,98920.69
2023-05-19T17:48:52.396Z,98906.94
2023-05-19T17:51:19.283Z,98883.88
2023-05-19T17:53:46.646Z,98911.22
2023-05-19T17:56:13.974Z,98905.28
2023-05-19T17:58:41.347Z,98914.84
2023-05-19T18:01:08.612Z,98919.00
2023-05-19T18:03:35.945Z,98902.50
2023-05-19T18:06:02.926Z,98919.28
2023-05-19T18:08:31.158Z,98909.72
2023-05-19T18:10:58.183Z,98915.75
2023-05-19T18:13:26.036Z,98925.97
2023-05-19T18:15:52.955Z,98920.84
2023-05-19T18:18:19.758Z,98903.25
2023-05-19T18:20:46.473Z,98933.66
2023-05-19T18:23:13.128Z,98922.97
2023-05-19T18:25:39.765Z,98931.16
2023-05-19T18:28:06.557Z,98902.50
2023-05-19T18:30:33.312Z,98936.25
2023-05-19T18:33:03.561Z,98929.75
2023-05-19T18:35:30.462Z,98924.56
2023-05-19T18:37:57.405Z,98895.34
2023-05-19T18:40:24.475Z,98912.41
2023-05-19T18:42:53.931Z,98897.88
2023-05-19T18:45:20.865Z,98877.81
2023-05-19T18:47:47.578Z,98898.59
2023-05-19T18:50:14.585Z,98939.47
2023-05-19T18:52:41.371Z,98911.31
2023-05-19T18:55:08.488Z,98887.09
2023-05-19T18:57:35.239Z,98905.16
2023-05-19T19:00:02.138Z,98915.19
2023-05-19T19:02:28.829Z,98908.56
2023-05-19T19:04:55.758Z,98941.13
2023-05-19T19:07:25.098Z,98914.97
2023-05-19T19:09:51.756Z,98907.72
2023-05-19T19:12:20.198Z,98902.88
2023-05-19T19:14:47.220Z,98893.53
2023-05-19T19:17:14.199Z,98909.56
2023-05-19T19:19:41.317Z,98928.13
2023-05-19T19:22:08.145Z,98923.34
2023-05-19T19:24:35.830Z,98947.00
2023-05-19T19:27:02.557Z,98958.88
2023-05-19T19:29:29.341Z,98948.47
2023-05-19T19:31:56.297Z,98936.44
2023-05-19T19:34:23.006Z,98969.50
2023-05-19T19:36:49.778Z,98981.91
2023-05-19T19:39:16.800Z,98974.78
2023-05-19T19:41:43.386Z,98986.47
2023-05-19T19:44:10.075Z,98983.25
2023-05-19T19:46:36.767Z,98962.44
2023-05-19T19:49:03.547Z,98944.91
2023-05-19T19:51:31.571Z,98964.63
2023-05-19T19:53:58.679Z,98983.31
2023-05-19T19:56:27.392Z,98972.34
2023-05-19T19:58:56.921Z,98973.84
2023-05-19T20:01:27.889Z,98982.34
2023-05-19T20:03:55.825Z,98993.41
2023-05-19T20:06:22.498Z,98988.22
2023-05-19T20:08:49.687Z,98982.16
2023-05-19T20:11:17.385Z,98968.84
2023-05-19T20:13:44.285Z,98990.16
2023-05-19T20:16:11.681Z,98982.00
2023-05-19T20:18:39.540Z,98990.34
2023-05-19T20:21:06.473Z,98944.97
2023-05-19T20:23:33.150Z,98951.56
2023-05-19T20:26:10.828Z,98994.94
2023-05-19T20:28:39.056Z,98998.66
2023-05-19T20:31:06.370Z,98994.69
2023-05-19T20:33:33.164Z,98997.00
2023-05-19T20:35:59.934Z,98987.13
2023-05-19T20:38:26.727Z,98975.28
2023-05-19T20:40:54.636Z,98993.84
2023-05-19T20:43:21.380Z,98996.88
2023-05-19T20:45:48.395Z,99002.41
2023-05-19T20:48:18.048Z,98987.94
2023-05-19T20:50:44.897Z,98985.94
2023-05-19T20:53:11.664Z,98960.22
2023-05-19T20:55:39.026Z,98961.63
2023-05-19T20:58:05.942Z,98998.53
2023-05-19T21:00:32.894Z,99001.88
2023-05-19T21:02:59.971Z,98968.00
2023-05-19T21:05:26.856Z,98961.47
2023-05-19T21:07:53.679Z,98980.34
2023-05-19T21:10:20.523Z,99004.91
2023-05-19T21:12:47.463Z,98982.56
2023-05-19T21:15:14.247Z,98981.53
2023-05-19T21:17:40.983Z,98996.59
2023-05-19T21:20:08.450Z,98969.19
2023-05-19T21:22:36.033Z,98973.72
2023-05-19T21:25:02.845Z,98956.00
2023-05-19T21:27:29.873Z,98979.56
2023-05-19T21:29:56.591Z,98971.09
2023-05-19T21:32:23.219Z,98992.09
2023-05-19T21:34:50.005Z,98960.00
2023-05-19T21:37:17.739Z,98974.97
2023-05-19T21:39:45.041Z,99019.31
2023-05-19T21:42:11.722Z,98970.09
2023-05-19T21:44:38.565Z,98951.06
2023-05-19T21:47:05.433Z,98952.91
2023-05-19T21:49:32.140Z,98963.94
2023-05-19T21:51:58.890Z,98988.69
2023-05-19T21:54:25.560Z,98961.25
2023-05-19T21:56:52.191Z,98968.97
2023-05-19T21:59:23.025Z,98961.44
2023-05-19T22:01:49.780Z,98974.16
2023-05-19T22:04:18.494Z,98995.16
2023-05-19T22:06:45.560Z,98956.38
2023-05-19T22:09:12.853Z,98977.25
2023-05-19T22:11:40.199Z,98959.25
2023-05-19T22:14:07.014Z,98982.63
2023-05-19T22:16:34.115Z,98975.44
2023-05-19T22:19:00.912Z,98959.53
2023-05-19T22:21:27.714Z,98962.75
2023-05-19T22:23:54.465Z,98962.75
2023-05-19T22:26:21.982Z,98961.25
2023-05-19T22:28:49.537Z,99003.38
2023-05-19T22:31:16.692Z,99002.56
2023-05-19T22:33:43.397Z,98959.06
2023-05-19T22:36:11.050Z,98966.38
2023-05-19T22:38:37.883Z,98943.00
2023-05-19T22:41:04.776Z,98990.44
2023-05-19T22:43:31.583Z,98968.78
2023-05-19T22:45:58.283Z,98994.50
2023-05-19T22:48:25.132Z,98950.69
2023-05-19T22:50:51.810Z,98965.06
2023-05-19T22:53:18.479Z,98975.25
2023-05-19T22:55:45.236Z,98970.91
2023-05-19T22:58:11.841Z,98972.47
2023-05-19T23:00:38.424Z,98951.91
2023-05-19T23:03:05.188Z,98955.03
2023-05-19T23:05:32.021Z,98949.41
2023-05-19T23:07:58.851Z,98967.75
2023-05-19T23:10:25.622Z,98976.59
2023-05-19T23:12:52.252Z,98943.84
2023-05-19T23:15:18.978Z,98938.66
2023-05-19T23:17:45.670Z,98969.75
2023-05-19T23:20:13.086Z,98956.19
2023-05-19T23:22:39.730Z,98927.75
2023-05-19T23:25:07.743Z,98960.69
2023-05-19T23:27:35.851Z,98933.59
2023-05-19T23:30:02.615Z,98963.00
2023-05-19T23:32:29.373Z,98923.09
2023-05-19T23:34:56.134Z,98931.06
2023-05-19T23:37:22.903Z,98964.84
2023-05-19T23:39:49.630Z,98950.97
2023-05-19T23:42:16.355Z,98953.16
2023-05-19T23:44:43.006Z,98932.31
2023-05-19T23:47:09.777Z,98952.53
2023-05-19T23:49:36.539Z,98937.03
2023-05-19T23:52:03.350Z,98950.22
2023-05-19T23:54:30.544Z,98937.94
2023-05-19T23:56:57.340Z,98931.44
2023-05-19T23:59:23.989Z,98937.88
